sensor_id;sensor_type;location;lat;lon;timestamp;P1;durP1;ratioP1;P2;durP2;ratioP2
9986;SDS011;5033;46.310;11.214;2022-11-20T00:00:52;3.05;;;2.85;;
9986;SDS011;5033;46.310;11.214;2022-11-20T00:03:20;2.95;;;2.75;;
9986;SDS011;5033;46.310;11.214;2022-11-20T00:05:47;3.00;;;2.85;;
9986;SDS011;5033;46.310;11.214;2022-11-20T00:08:15;2.85;;;2.65;;
9986;SDS011;5033;46.310;11.214;2022-11-20T00:10:42;5.43;;;2.80;;
9986;SDS011;5033;46.310;11.214;2022-11-20T00:13:11;2.85;;;2.65;;
9986;SDS011;5033;46.310;11.214;2022-11-20T00:15:39;2.90;;;2.70;;
9986;SDS011;5033;46.310;11.214;2022-11-20T00:18:06;2.40;;;2.30;;
9986;SDS011;5033;46.310;11.214;2022-11-20T00:20:33;2.15;;;2.05;;
9986;SDS011;5033;46.310;11.214;2022-11-20T00:23:00;2.80;;;2.55;;
9986;SDS011;5033;46.310;11.214;2022-11-20T00:25:28;2.47;;;2.38;;
9986;SDS011;5033;46.310;11.214;2022-11-20T00:27:56;2.88;;;2.67;;
9986;SDS011;5033;46.310;11.214;2022-11-20T00:30:25;2.40;;;2.30;;
9986;SDS011;5033;46.310;11.214;2022-11-20T00:32:53;2.45;;;2.35;;
9986;SDS011;5033;46.310;11.214;2022-11-20T00:35:22;2.25;;;2.15;;
9986;SDS011;5033;46.310;11.214;2022-11-20T00:37:49;2.50;;;2.40;;
9986;SDS011;5033;46.310;11.214;2022-11-20T00:40:16;2.70;;;2.50;;
9986;SDS011;5033;46.310;11.214;2022-11-20T00:42:44;2.30;;;2.20;;
9986;SDS011;5033;46.310;11.214;2022-11-20T00:45:11;2.55;;;2.45;;
9986;SDS011;5033;46.310;11.214;2022-11-20T00:47:40;2.92;;;2.80;;
9986;SDS011;5033;46.310;11.214;2022-11-20T00:50:08;2.67;;;2.55;;
9986;SDS011;5033;46.310;11.214;2022-11-20T00:52:36;2.10;;;2.00;;
9986;SDS011;5033;46.310;11.214;2022-11-20T00:55:03;2.20;;;2.10;;
9986;SDS011;5033;46.310;11.214;2022-11-20T00:57:32;2.33;;;2.22;;
9986;SDS011;5033;46.310;11.214;2022-11-20T00:59:59;2.50;;;2.40;;
9986;SDS011;5033;46.310;11.214;2022-11-20T01:02:26;2.33;;;2.22;;
9986;SDS011;5033;46.310;11.214;2022-11-20T01:04:55;2.42;;;2.33;;
9986;SDS011;5033;46.310;11.214;2022-11-20T01:07:22;2.20;;;2.10;;
9986;SDS011;5033;46.310;11.214;2022-11-20T01:09:50;2.22;;;2.13;;
9986;SDS011;5033;46.310;11.214;2022-11-20T01:12:17;2.35;;;2.25;;
9986;SDS011;5033;46.310;11.214;2022-11-20T01:14:44;2.40;;;2.30;;
9986;SDS011;5033;46.310;11.214;2022-11-20T01:17:13;2.40;;;2.30;;
9986;SDS011;5033;46.310;11.214;2022-11-20T01:19:40;2.85;;;2.60;;
9986;SDS011;5033;46.310;11.214;2022-11-20T01:22:09;2.30;;;2.20;;
9986;SDS011;5033;46.310;11.214;2022-11-20T01:24:36;2.55;;;2.45;;
9986;SDS011;5033;46.310;11.214;2022-11-20T01:27:05;2.55;;;2.45;;
9986;SDS011;5033;46.310;11.214;2022-11-20T01:29:32;2.30;;;2.20;;
9986;SDS011;5033;46.310;11.214;2022-11-20T01:31:59;2.22;;;2.13;;
9986;SDS011;5033;46.310;11.214;2022-11-20T01:34:27;2.45;;;2.35;;
9986;SDS011;5033;46.310;11.214;2022-11-20T01:36:54;2.40;;;2.30;;
9986;SDS011;5033;46.310;11.214;2022-11-20T01:39:24;2.65;;;2.50;;
9986;SDS011;5033;46.310;11.214;2022-11-20T01:41:53;2.25;;;2.15;;
9986;SDS011;5033;46.310;11.214;2022-11-20T01:47:29;2.53;;;2.42;;
9986;SDS011;5033;46.310;11.214;2022-11-20T01:50:01;2.58;;;2.47;;
9986;SDS011;5033;46.310;11.214;2022-11-20T01:52:33;2.38;;;2.28;;
9986;SDS011;5033;46.310;11.214;2022-11-20T01:55:07;2.30;;;2.20;;
9986;SDS011;5033;46.310;11.214;2022-11-20T01:57:36;2.45;;;2.35;;
9986;SDS011;5033;46.310;11.214;2022-11-20T02:00:07;2.40;;;2.30;;
9986;SDS011;5033;46.310;11.214;2022-11-20T02:02:36;2.42;;;2.33;;
9986;SDS011;5033;46.310;11.214;2022-11-20T02:05:09;2.88;;;2.67;;
9986;SDS011;5033;46.310;11.214;2022-11-20T02:07:44;2.42;;;2.33;;
9986;SDS011;5033;46.310;11.214;2022-11-20T02:10:14;2.80;;;2.67;;
9986;SDS011;5033;46.310;11.214;2022-11-20T02:12:42;2.55;;;2.45;;
9986;SDS011;5033;46.310;11.214;2022-11-20T02:15:26;2.47;;;2.33;;
9986;SDS011;5033;46.310;11.214;2022-11-20T02:17:54;2.78;;;2.58;;
9986;SDS011;5033;46.310;11.214;2022-11-20T02:20:21;2.67;;;2.58;;
9986;SDS011;5033;46.310;11.214;2022-11-20T02:22:50;2.28;;;2.17;;
9986;SDS011;5033;46.310;11.214;2022-11-20T02:25:26;2.45;;;2.35;;
9986;SDS011;5033;46.310;11.214;2022-11-20T02:27:54;2.60;;;2.50;;
9986;SDS011;5033;46.310;11.214;2022-11-20T02:30:22;2.13;;;2.03;;
9986;SDS011;5033;46.310;11.214;2022-11-20T02:32:49;2.50;;;2.40;;
9986;SDS011;5033;46.310;11.214;2022-11-20T02:38:07;2.58;;;2.47;;
9986;SDS011;5033;46.310;11.214;2022-11-20T02:40:36;2.35;;;2.25;;
9986;SDS011;5033;46.310;11.214;2022-11-20T02:43:03;2.50;;;2.40;;
9986;SDS011;5033;46.310;11.214;2022-11-20T02:45:31;2.15;;;2.05;;
9986;SDS011;5033;46.310;11.214;2022-11-20T02:47:59;2.38;;;2.28;;
9986;SDS011;5033;46.310;11.214;2022-11-20T02:50:26;2.40;;;2.30;;
9986;SDS011;5033;46.310;11.214;2022-11-20T02:52:54;2.22;;;2.13;;
9986;SDS011;5033;46.310;11.214;2022-11-20T02:55:22;2.60;;;2.40;;
9986;SDS011;5033;46.310;11.214;2022-11-20T02:57:51;2.50;;;2.40;;
9986;SDS011;5033;46.310;11.214;2022-11-20T03:00:18;2.53;;;2.33;;
9986;SDS011;5033;46.310;11.214;2022-11-20T03:02:46;3.10;;;2.83;;
9986;SDS011;5033;46.310;11.214;2022-11-20T03:05:13;2.70;;;2.60;;
9986;SDS011;5033;46.310;11.214;2022-11-20T03:07:41;2.67;;;2.47;;
9986;SDS011;5033;46.310;11.214;2022-11-20T03:10:09;2.40;;;2.30;;
9986;SDS011;5033;46.310;11.214;2022-11-20T03:12:37;2.58;;;2.45;;
9986;SDS011;5033;46.310;11.214;2022-11-20T03:15:07;3.00;;;2.80;;
9986;SDS011;5033;46.310;11.214;2022-11-20T03:17:35;3.15;;;2.95;;
9986;SDS011;5033;46.310;11.214;2022-11-20T03:20:03;2.83;;;2.63;;
9986;SDS011;5033;46.310;11.214;2022-11-20T03:22:31;2.92;;;2.72;;
9986;SDS011;5033;46.310;11.214;2022-11-20T03:24:58;2.85;;;2.65;;
9986;SDS011;5033;46.310;11.214;2022-11-20T03:27:25;2.38;;;2.25;;
9986;SDS011;5033;46.310;11.214;2022-11-20T03:29:52;2.70;;;2.50;;
9986;SDS011;5033;46.310;11.214;2022-11-20T03:32:21;2.53;;;2.42;;
9986;SDS011;5033;46.310;11.214;2022-11-20T03:34:49;2.58;;;2.45;;
9986;SDS011;5033;46.310;11.214;2022-11-20T03:37:17;3.00;;;2.80;;
9986;SDS011;5033;46.310;11.214;2022-11-20T03:39:45;2.90;;;2.80;;
9986;SDS011;5033;46.310;11.214;2022-11-20T03:42:12;2.60;;;2.47;;
9986;SDS011;5033;46.310;11.214;2022-11-20T03:44:53;2.90;;;2.70;;
9986;SDS011;5033;46.310;11.214;2022-11-20T03:47:22;2.40;;;2.22;;
9986;SDS011;5033;46.310;11.214;2022-11-20T03:49:49;2.67;;;2.58;;
9986;SDS011;5033;46.310;11.214;2022-11-20T03:52:16;2.50;;;2.40;;
9986;SDS011;5033;46.310;11.214;2022-11-20T03:54:43;2.60;;;2.50;;
9986;SDS011;5033;46.310;11.214;2022-11-20T03:57:10;2.30;;;2.20;;
9986;SDS011;5033;46.310;11.214;2022-11-20T03:59:37;2.38;;;2.28;;
9986;SDS011;5033;46.310;11.214;2022-11-20T04:02:05;2.60;;;2.50;;
9986;SDS011;5033;46.310;11.214;2022-11-20T04:04:34;2.55;;;2.45;;
9986;SDS011;5033;46.310;11.214;2022-11-20T04:07:01;2.38;;;2.28;;
9986;SDS011;5033;46.310;11.214;2022-11-20T04:09:29;2.65;;;2.47;;
9986;SDS011;5033;46.310;11.214;2022-11-20T04:11:56;2.55;;;2.45;;
9986;SDS011;5033;46.310;11.214;2022-11-20T04:14:24;2.65;;;2.55;;
9986;SDS011;5033;46.310;11.214;2022-11-20T04:16:51;2.50;;;2.40;;
9986;SDS011;5033;46.310;11.214;2022-11-20T04:19:19;2.47;;;2.38;;
9986;SDS011;5033;46.310;11.214;2022-11-20T04:21:48;2.50;;;2.40;;
9986;SDS011;5033;46.310;11.214;2022-11-20T04:24:15;2.30;;;2.20;;
9986;SDS011;5033;46.310;11.214;2022-11-20T04:26:42;2.50;;;2.40;;
9986;SDS011;5033;46.310;11.214;2022-11-20T04:29:10;2.40;;;2.30;;
9986;SDS011;5033;46.310;11.214;2022-11-20T04:31:37;2.50;;;2.40;;
9986;SDS011;5033;46.310;11.214;2022-11-20T04:34:05;2.50;;;2.40;;
9986;SDS011;5033;46.310;11.214;2022-11-20T04:36:33;2.50;;;2.40;;
9986;SDS011;5033;46.310;11.214;2022-11-20T04:39:05;2.50;;;2.40;;
9986;SDS011;5033;46.310;11.214;2022-11-20T04:41:33;2.42;;;2.33;;
9986;SDS011;5033;46.310;11.214;2022-11-20T04:44:04;2.50;;;2.40;;
9986;SDS011;5033;46.310;11.214;2022-11-20T04:46:33;2.60;;;2.50;;
9986;SDS011;5033;46.310;11.214;2022-11-20T04:49:03;2.30;;;2.20;;
9986;SDS011;5033;46.310;11.214;2022-11-20T04:51:30;2.70;;;2.60;;
9986;SDS011;5033;46.310;11.214;2022-11-20T04:53:58;2.22;;;2.13;;
9986;SDS011;5033;46.310;11.214;2022-11-20T04:56:27;2.55;;;2.45;;
9986;SDS011;5033;46.310;11.214;2022-11-20T04:58:54;2.50;;;2.40;;
9986;SDS011;5033;46.310;11.214;2022-11-20T05:01:22;2.60;;;2.50;;
9986;SDS011;5033;46.310;11.214;2022-11-20T05:03:50;2.25;;;2.15;;
9986;SDS011;5033;46.310;11.214;2022-11-20T05:06:19;2.40;;;2.30;;
9986;SDS011;5033;46.310;11.214;2022-11-20T05:08:47;2.70;;;2.60;;
9986;SDS011;5033;46.310;11.214;2022-11-20T05:11:14;2.80;;;2.70;;
9986;SDS011;5033;46.310;11.214;2022-11-20T05:13:44;2.50;;;2.40;;
9986;SDS011;5033;46.310;11.214;2022-11-20T05:16:13;2.50;;;2.40;;
9986;SDS011;5033;46.310;11.214;2022-11-20T05:18:41;2.40;;;2.30;;
9986;SDS011;5033;46.310;11.214;2022-11-20T05:21:09;2.20;;;2.10;;
9986;SDS011;5033;46.310;11.214;2022-11-20T05:23:37;2.63;;;2.53;;
9986;SDS011;5033;46.310;11.214;2022-11-20T05:26:07;2.40;;;2.30;;
9986;SDS011;5033;46.310;11.214;2022-11-20T05:28:39;2.78;;;2.67;;
9986;SDS011;5033;46.310;11.214;2022-11-20T05:31:09;2.47;;;2.38;;
9986;SDS011;5033;46.310;11.214;2022-11-20T05:33:39;2.72;;;2.63;;
9986;SDS011;5033;46.310;11.214;2022-11-20T05:36:07;2.40;;;2.30;;
9986;SDS011;5033;46.310;11.214;2022-11-20T05:38:35;2.47;;;2.38;;
9986;SDS011;5033;46.310;11.214;2022-11-20T05:41:04;2.30;;;2.20;;
9986;SDS011;5033;46.310;11.214;2022-11-20T05:43:32;2.58;;;2.47;;
9986;SDS011;5033;46.310;11.214;2022-11-20T05:46:01;2.42;;;2.33;;
9986;SDS011;5033;46.310;11.214;2022-11-20T05:48:30;2.40;;;2.30;;
9986;SDS011;5033;46.310;11.214;2022-11-20T05:50:58;2.40;;;2.30;;
9986;SDS011;5033;46.310;11.214;2022-11-20T05:53:28;2.47;;;2.38;;
9986;SDS011;5033;46.310;11.214;2022-11-20T05:55:56;2.60;;;2.50;;
9986;SDS011;5033;46.310;11.214;2022-11-20T05:58:24;3.15;;;2.95;;
9986;SDS011;5033;46.310;11.214;2022-11-20T06:00:52;3.15;;;2.97;;
9986;SDS011;5033;46.310;11.214;2022-11-20T06:03:19;2.70;;;2.60;;
9986;SDS011;5033;46.310;11.214;2022-11-20T06:05:48;2.95;;;2.75;;
9986;SDS011;5033;46.310;11.214;2022-11-20T06:08:15;2.60;;;2.50;;
9986;SDS011;5033;46.310;11.214;2022-11-20T06:10:43;2.90;;;2.80;;
9986;SDS011;5033;46.310;11.214;2022-11-20T06:13:11;2.80;;;2.70;;
9986;SDS011;5033;46.310;11.214;2022-11-20T06:15:39;2.80;;;2.70;;
9986;SDS011;5033;46.310;11.214;2022-11-20T06:18:06;3.00;;;2.80;;
9986;SDS011;5033;46.310;11.214;2022-11-20T06:20:33;2.92;;;2.80;;
9986;SDS011;5033;46.310;11.214;2022-11-20T06:23:02;2.50;;;2.40;;
9986;SDS011;5033;46.310;11.214;2022-11-20T06:25:30;2.63;;;2.53;;
9986;SDS011;5033;46.310;11.214;2022-11-20T06:27:57;2.92;;;2.80;;
9986;SDS011;5033;46.310;11.214;2022-11-20T06:30:24;2.65;;;2.55;;
9986;SDS011;5033;46.310;11.214;2022-11-20T06:32:52;2.65;;;2.55;;
9986;SDS011;5033;46.310;11.214;2022-11-20T06:35:19;2.75;;;2.65;;
9986;SDS011;5033;46.310;11.214;2022-11-20T06:37:46;2.35;;;2.25;;
9986;SDS011;5033;46.310;11.214;2022-11-20T06:40:17;2.67;;;2.58;;
9986;SDS011;5033;46.310;11.214;2022-11-20T06:42:45;2.50;;;2.40;;
9986;SDS011;5033;46.310;11.214;2022-11-20T06:45:12;3.17;;;2.90;;
9986;SDS011;5033;46.310;11.214;2022-11-20T06:47:39;3.00;;;2.90;;
9986;SDS011;5033;46.310;11.214;2022-11-20T06:50:07;2.90;;;2.80;;
9986;SDS011;5033;46.310;11.214;2022-11-20T06:52:35;2.92;;;2.83;;
9986;SDS011;5033;46.310;11.214;2022-11-20T06:55:02;2.60;;;2.50;;
9986;SDS011;5033;46.310;11.214;2022-11-20T06:57:32;3.10;;;2.92;;
9986;SDS011;5033;46.310;11.214;2022-11-20T07:00:00;2.85;;;2.75;;
9986;SDS011;5033;46.310;11.214;2022-11-20T07:02:28;2.53;;;2.42;;
9986;SDS011;5033;46.310;11.214;2022-11-20T07:04:55;2.55;;;2.45;;
9986;SDS011;5033;46.310;11.214;2022-11-20T07:07:22;2.70;;;2.60;;
9986;SDS011;5033;46.310;11.214;2022-11-20T07:09:50;2.22;;;2.13;;
9986;SDS011;5033;46.310;11.214;2022-11-20T07:12:17;2.35;;;2.25;;
9986;SDS011;5033;46.310;11.214;2022-11-20T07:14:46;2.78;;;2.60;;
9986;SDS011;5033;46.310;11.214;2022-11-20T07:17:14;2.70;;;2.60;;
9986;SDS011;5033;46.310;11.214;2022-11-20T07:19:42;2.60;;;2.50;;
9986;SDS011;5033;46.310;11.214;2022-11-20T07:22:12;2.53;;;2.42;;
9986;SDS011;5033;46.310;11.214;2022-11-20T07:24:39;2.78;;;2.67;;
9986;SDS011;5033;46.310;11.214;2022-11-20T07:27:07;2.80;;;2.70;;
9986;SDS011;5033;46.310;11.214;2022-11-20T07:29:34;3.30;;;3.10;;
9986;SDS011;5033;46.310;11.214;2022-11-20T07:32:03;3.10;;;3.00;;
9986;SDS011;5033;46.310;11.214;2022-11-20T07:34:31;2.97;;;2.88;;
9986;SDS011;5033;46.310;11.214;2022-11-20T07:36:58;2.70;;;2.60;;
9986;SDS011;5033;46.310;11.214;2022-11-20T07:39:26;3.03;;;2.90;;
9986;SDS011;5033;46.310;11.214;2022-11-20T07:41:53;3.05;;;2.95;;
9986;SDS011;5033;46.310;11.214;2022-11-20T07:44:20;3.00;;;2.80;;
9986;SDS011;5033;46.310;11.214;2022-11-20T07:46:48;3.15;;;3.05;;
9986;SDS011;5033;46.310;11.214;2022-11-20T07:49:17;3.00;;;2.90;;
9986;SDS011;5033;46.310;11.214;2022-11-20T07:51:44;2.88;;;2.78;;
9986;SDS011;5033;46.310;11.214;2022-11-20T07:54:11;3.08;;;2.95;;
9986;SDS011;5033;46.310;11.214;2022-11-20T07:56:39;3.35;;;3.15;;
9986;SDS011;5033;46.310;11.214;2022-11-20T07:59:06;3.63;;;3.42;;
9986;SDS011;5033;46.310;11.214;2022-11-20T08:01:33;3.05;;;2.85;;
9986;SDS011;5033;46.310;11.214;2022-11-20T08:04:00;3.10;;;2.90;;
9986;SDS011;5033;46.310;11.214;2022-11-20T08:06:30;3.15;;;2.90;;
9986;SDS011;5033;46.310;11.214;2022-11-20T08:08:57;3.45;;;3.22;;
9986;SDS011;5033;46.310;11.214;2022-11-20T08:11:24;3.53;;;3.33;;
9986;SDS011;5033;46.310;11.214;2022-11-20T08:14:08;3.38;;;3.13;;
9986;SDS011;5033;46.310;11.214;2022-11-20T08:16:41;4.88;;;3.45;;
9986;SDS011;5033;46.310;11.214;2022-11-20T08:19:09;3.70;;;3.40;;
9986;SDS011;5033;46.310;11.214;2022-11-20T08:21:39;3.78;;;3.47;;
9986;SDS011;5033;46.310;11.214;2022-11-20T08:24:07;3.92;;;3.63;;
9986;SDS011;5033;46.310;11.214;2022-11-20T08:26:35;3.05;;;2.85;;
9986;SDS011;5033;46.310;11.214;2022-11-20T08:29:04;2.58;;;2.38;;
9986;SDS011;5033;46.310;11.214;2022-11-20T08:31:32;3.00;;;2.80;;
9986;SDS011;5033;46.310;11.214;2022-11-20T08:34:00;2.60;;;2.40;;
9986;SDS011;5033;46.310;11.214;2022-11-20T08:36:27;2.85;;;2.65;;
9986;SDS011;5033;46.310;11.214;2022-11-20T08:38:56;2.72;;;2.40;;
9986;SDS011;5033;46.310;11.214;2022-11-20T08:41:24;2.65;;;2.45;;
9986;SDS011;5033;46.310;11.214;2022-11-20T08:43:54;3.75;;;2.85;;
9986;SDS011;5033;46.310;11.214;2022-11-20T08:46:23;3.63;;;2.80;;
9986;SDS011;5033;46.310;11.214;2022-11-20T08:48:51;2.60;;;2.10;;
9986;SDS011;5033;46.310;11.214;2022-11-20T08:51:19;2.47;;;2.28;;
9986;SDS011;5033;46.310;11.214;2022-11-20T08:53:47;3.40;;;2.42;;
9986;SDS011;5033;46.310;11.214;2022-11-20T08:56:16;2.70;;;2.50;;
9986;SDS011;5033;46.310;11.214;2022-11-20T08:58:44;2.67;;;2.47;;
9986;SDS011;5033;46.310;11.214;2022-11-20T09:01:11;2.63;;;2.42;;
9986;SDS011;5033;46.310;11.214;2022-11-20T09:03:38;3.03;;;2.80;;
9986;SDS011;5033;46.310;11.214;2022-11-20T09:06:06;2.90;;;2.38;;
9986;SDS011;5033;46.310;11.214;2022-11-20T09:08:34;2.67;;;2.47;;
9986;SDS011;5033;46.310;11.214;2022-11-20T09:11:02;2.40;;;2.20;;
9986;SDS011;5033;46.310;11.214;2022-11-20T09:13:32;2.50;;;2.30;;
9986;SDS011;5033;46.310;11.214;2022-11-20T09:16:01;2.60;;;2.40;;
9986;SDS011;5033;46.310;11.214;2022-11-20T09:18:30;2.75;;;2.50;;
9986;SDS011;5033;46.310;11.214;2022-11-20T09:20:59;2.20;;;2.10;;
9986;SDS011;5033;46.310;11.214;2022-11-20T09:23:27;2.80;;;2.15;;
9986;SDS011;5033;46.310;11.214;2022-11-20T09:25:57;2.78;;;2.50;;
9986;SDS011;5033;46.310;11.214;2022-11-20T09:28:27;3.10;;;2.80;;
9986;SDS011;5033;46.310;11.214;2022-11-20T09:30:56;2.72;;;2.30;;
9986;SDS011;5033;46.310;11.214;2022-11-20T09:33:23;2.25;;;2.10;;
9986;SDS011;5033;46.310;11.214;2022-11-20T09:35:51;3.95;;;2.50;;
9986;SDS011;5033;46.310;11.214;2022-11-20T09:38:18;2.42;;;2.22;;
9986;SDS011;5033;46.310;11.214;2022-11-20T09:40:46;2.63;;;2.42;;
9986;SDS011;5033;46.310;11.214;2022-11-20T09:43:21;2.88;;;2.67;;
9986;SDS011;5033;46.310;11.214;2022-11-20T09:46:04;2.97;;;2.78;;
9986;SDS011;5033;46.310;11.214;2022-11-20T09:50:11;2.85;;;2.65;;
9986;SDS011;5033;46.310;11.214;2022-11-20T09:52:51;3.25;;;2.95;;
9986;SDS011;5033;46.310;11.214;2022-11-20T09:55:30;3.35;;;3.05;;
9986;SDS011;5033;46.310;11.214;2022-11-20T09:57:57;4.20;;;3.63;;
9986;SDS011;5033;46.310;11.214;2022-11-20T10:00:26;3.60;;;3.30;;
9986;SDS011;5033;46.310;11.214;2022-11-20T10:02:55;3.55;;;3.25;;
9986;SDS011;5033;46.310;11.214;2022-11-20T10:05:30;3.55;;;3.25;;
9986;SDS011;5033;46.310;11.214;2022-11-20T10:08:08;3.65;;;3.33;;
9986;SDS011;5033;46.310;11.214;2022-11-20T10:10:43;3.33;;;3.10;;
9986;SDS011;5033;46.310;11.214;2022-11-20T10:13:20;4.53;;;3.10;;
9986;SDS011;5033;46.310;11.214;2022-11-20T10:15:59;3.35;;;3.15;;
9986;SDS011;5033;46.310;11.214;2022-11-20T10:18:40;2.58;;;2.38;;
9986;SDS011;5033;46.310;11.214;2022-11-20T10:21:22;3.03;;;2.72;;
9986;SDS011;5033;46.310;11.214;2022-11-20T10:27:04;3.15;;;2.60;;
9986;SDS011;5033;46.310;11.214;2022-11-20T10:29:36;3.78;;;2.72;;
9986;SDS011;5033;46.310;11.214;2022-11-20T10:32:08;2.45;;;2.25;;
9986;SDS011;5033;46.310;11.214;2022-11-20T10:34:44;2.80;;;2.58;;
9986;SDS011;5033;46.310;11.214;2022-11-20T10:37:17;2.90;;;2.70;;
9986;SDS011;5033;46.310;11.214;2022-11-20T10:39:49;2.83;;;2.38;;
9986;SDS011;5033;46.310;11.214;2022-11-20T10:42:23;3.22;;;2.60;;
9986;SDS011;5033;46.310;11.214;2022-11-20T10:44:58;3.00;;;2.72;;
9986;SDS011;5033;46.310;11.214;2022-11-20T10:47:37;2.80;;;2.60;;
9986;SDS011;5033;46.310;11.214;2022-11-20T10:50:05;3.22;;;2.85;;
9986;SDS011;5033;46.310;11.214;2022-11-20T10:52:41;2.92;;;2.65;;
9986;SDS011;5033;46.310;11.214;2022-11-20T10:55:18;2.92;;;2.65;;
9986;SDS011;5033;46.310;11.214;2022-11-20T10:57:54;3.22;;;2.92;;
9986;SDS011;5033;46.310;11.214;2022-11-20T11:00:30;3.17;;;2.60;;
9986;SDS011;5033;46.310;11.214;2022-11-20T11:02:57;2.40;;;2.25;;
9986;SDS011;5033;46.310;11.214;2022-11-20T11:05:37;2.45;;;2.25;;
9986;SDS011;5033;46.310;11.214;2022-11-20T11:08:12;2.63;;;2.42;;
9986;SDS011;5033;46.310;11.214;2022-11-20T11:10:44;3.00;;;2.50;;
9986;SDS011;5033;46.310;11.214;2022-11-20T11:13:21;2.53;;;2.33;;
9986;SDS011;5033;46.310;11.214;2022-11-20T11:15:48;2.10;;;1.98;;
9986;SDS011;5033;46.310;11.214;2022-11-20T11:18:22;3.30;;;2.38;;
9986;SDS011;5033;46.310;11.214;2022-11-20T11:20:51;2.20;;;2.10;;
9986;SDS011;5033;46.310;11.214;2022-11-20T11:26:17;2.30;;;2.10;;
9986;SDS011;5033;46.310;11.214;2022-11-20T11:28:52;2.40;;;2.30;;
9986;SDS011;5033;46.310;11.214;2022-11-20T11:31:22;2.58;;;2.25;;
9986;SDS011;5033;46.310;11.214;2022-11-20T11:33:50;2.10;;;2.00;;
9986;SDS011;5033;46.310;11.214;2022-11-20T11:36:17;2.47;;;2.10;;
9986;SDS011;5033;46.310;11.214;2022-11-20T11:38:49;2.30;;;2.10;;
9986;SDS011;5033;46.310;11.214;2022-11-20T11:41:20;2.42;;;2.22;;
9986;SDS011;5033;46.310;11.214;2022-11-20T11:43:51;2.15;;;2.03;;
9986;SDS011;5033;46.310;11.214;2022-11-20T11:46:37;2.08;;;1.88;;
9986;SDS011;5033;46.310;11.214;2022-11-20T11:49:15;2.70;;;2.50;;
9986;SDS011;5033;46.310;11.214;2022-11-20T11:51:47;3.35;;;2.50;;
9986;SDS011;5033;46.310;11.214;2022-11-20T11:54:30;2.60;;;2.20;;
9986;SDS011;5033;46.310;11.214;2022-11-20T11:57:05;2.63;;;2.42;;
9986;SDS011;5033;46.310;11.214;2022-11-20T11:59:41;2.40;;;2.20;;
9986;SDS011;5033;46.310;11.214;2022-11-20T12:02:24;2.30;;;2.20;;
9986;SDS011;5033;46.310;11.214;2022-11-20T12:04:57;2.70;;;2.33;;
9986;SDS011;5033;46.310;11.214;2022-11-20T12:07:33;2.45;;;2.25;;
9986;SDS011;5033;46.310;11.214;2022-11-20T12:10:08;2.40;;;2.20;;
9986;SDS011;5033;46.310;11.214;2022-11-20T12:12:43;2.17;;;2.08;;
9986;SDS011;5033;46.310;11.214;2022-11-20T12:15:16;2.25;;;2.15;;
9986;SDS011;5033;46.310;11.214;2022-11-20T12:17:56;2.55;;;2.20;;
9986;SDS011;5033;46.310;11.214;2022-11-20T12:20:24;2.10;;;2.00;;
9986;SDS011;5033;46.310;11.214;2022-11-20T12:22:56;2.40;;;2.20;;
9986;SDS011;5033;46.310;11.214;2022-11-20T12:25:32;2.03;;;1.92;;
9986;SDS011;5033;46.310;11.214;2022-11-20T12:28:05;1.83;;;1.73;;
9986;SDS011;5033;46.310;11.214;2022-11-20T12:30:48;1.98;;;1.83;;
9986;SDS011;5033;46.310;11.214;2022-11-20T12:33:33;2.13;;;1.92;;
9986;SDS011;5033;46.310;11.214;2022-11-20T12:36:19;2.45;;;2.20;;
9986;SDS011;5033;46.310;11.214;2022-11-20T12:42:03;1.92;;;1.80;;
9986;SDS011;5033;46.310;11.214;2022-11-20T12:45:02;1.80;;;1.70;;
9986;SDS011;5033;46.310;11.214;2022-11-20T12:50:37;1.88;;;1.70;;
9986;SDS011;5033;46.310;11.214;2022-11-20T12:53:16;2.28;;;2.08;;
9986;SDS011;5033;46.310;11.214;2022-11-20T12:55:54;2.00;;;1.80;;
9986;SDS011;5033;46.310;11.214;2022-11-20T12:58:32;1.70;;;1.60;;
9986;SDS011;5033;46.310;11.214;2022-11-20T13:01:07;2.17;;;1.88;;
9986;SDS011;5033;46.310;11.214;2022-11-20T13:04:07;2.05;;;1.90;;
9986;SDS011;5033;46.310;11.214;2022-11-20T13:06:40;2.10;;;2.00;;
9986;SDS011;5033;46.310;11.214;2022-11-20T13:09:08;2.13;;;1.92;;
9986;SDS011;5033;46.310;11.214;2022-11-20T13:11:40;2.00;;;1.80;;
9986;SDS011;5033;46.310;11.214;2022-11-20T13:14:19;2.92;;;1.83;;
9986;SDS011;5033;46.310;11.214;2022-11-20T13:16:54;1.85;;;1.75;;
9986;SDS011;5033;46.310;11.214;2022-11-20T13:19:25;1.75;;;1.65;;
9986;SDS011;5033;46.310;11.214;2022-11-20T13:21:53;1.80;;;1.70;;
9986;SDS011;5033;46.310;11.214;2022-11-20T13:24:22;2.53;;;1.42;;
9986;SDS011;5033;46.310;11.214;2022-11-20T13:27:04;1.98;;;1.88;;
9986;SDS011;5033;46.310;11.214;2022-11-20T13:29:47;1.60;;;1.50;;
9986;SDS011;5033;46.310;11.214;2022-11-20T13:32:27;2.10;;;1.90;;
9986;SDS011;5033;46.310;11.214;2022-11-20T13:34:58;3.22;;;2.00;;
9986;SDS011;5033;46.310;11.214;2022-11-20T13:37:27;1.98;;;1.83;;
9986;SDS011;5033;46.310;11.214;2022-11-20T13:40:05;1.90;;;1.80;;
9986;SDS011;5033;46.310;11.214;2022-11-20T13:42:38;2.03;;;1.70;;
9986;SDS011;5033;46.310;11.214;2022-11-20T13:45:20;1.95;;;1.85;;
9986;SDS011;5033;46.310;11.214;2022-11-20T13:47:49;2.05;;;1.58;;
9986;SDS011;5033;46.310;11.214;2022-11-20T13:50:17;1.90;;;1.80;;
9986;SDS011;5033;46.310;11.214;2022-11-20T13:52:47;2.00;;;1.90;;
9986;SDS011;5033;46.310;11.214;2022-11-20T13:55:23;1.60;;;1.50;;
9986;SDS011;5033;46.310;11.214;2022-11-20T13:57:58;2.90;;;1.65;;
9986;SDS011;5033;46.310;11.214;2022-11-20T14:00:57;2.13;;;2.03;;
9986;SDS011;5033;46.310;11.214;2022-11-20T14:03:28;2.10;;;2.00;;
9986;SDS011;5033;46.310;11.214;2022-11-20T14:06:01;5.82;;;2.15;;
9986;SDS011;5033;46.310;11.214;2022-11-20T14:08:32;2.33;;;2.13;;
9986;SDS011;5033;46.310;11.214;2022-11-20T14:11:05;2.10;;;2.00;;
9986;SDS011;5033;46.310;11.214;2022-11-20T14:13:39;2.25;;;2.05;;
9986;SDS011;5033;46.310;11.214;2022-11-20T14:16:20;1.90;;;1.80;;
9986;SDS011;5033;46.310;11.214;2022-11-20T14:18:47;1.83;;;1.73;;
9986;SDS011;5033;46.310;11.214;2022-11-20T14:21:21;3.60;;;3.30;;
9986;SDS011;5033;46.310;11.214;2022-11-20T14:23:51;8.95;;;7.45;;
9986;SDS011;5033;46.310;11.214;2022-11-20T14:26:20;8.18;;;7.47;;
9986;SDS011;5033;46.310;11.214;2022-11-20T14:28:47;6.88;;;6.28;;
9986;SDS011;5033;46.310;11.214;2022-11-20T14:31:21;6.25;;;5.65;;
9986;SDS011;5033;46.310;11.214;2022-11-20T14:33:51;5.70;;;4.82;;
9986;SDS011;5033;46.310;11.214;2022-11-20T14:36:20;5.07;;;4.53;;
9986;SDS011;5033;46.310;11.214;2022-11-20T14:38:49;4.65;;;4.22;;
9986;SDS011;5033;46.310;11.214;2022-11-20T14:41:18;4.55;;;4.15;;
9986;SDS011;5033;46.310;11.214;2022-11-20T14:43:47;4.43;;;4.03;;
9986;SDS011;5033;46.310;11.214;2022-11-20T14:46:17;3.80;;;3.50;;
9986;SDS011;5033;46.310;11.214;2022-11-20T14:48:47;3.70;;;3.33;;
9986;SDS011;5033;46.310;11.214;2022-11-20T14:51:25;3.45;;;3.15;;
9986;SDS011;5033;46.310;11.214;2022-11-20T14:53:56;2.90;;;2.70;;
9986;SDS011;5033;46.310;11.214;2022-11-20T14:56:34;2.80;;;2.60;;
9986;SDS011;5033;46.310;11.214;2022-11-20T14:59:01;2.03;;;1.92;;
9986;SDS011;5033;46.310;11.214;2022-11-20T15:01:28;2.53;;;2.33;;
9986;SDS011;5033;46.310;11.214;2022-11-20T15:04:00;2.15;;;1.95;;
9986;SDS011;5033;46.310;11.214;2022-11-20T15:06:30;4.13;;;3.60;;
9986;SDS011;5033;46.310;11.214;2022-11-20T15:08:58;5.22;;;4.32;;
9986;SDS011;5033;46.310;11.214;2022-11-20T15:11:27;9.48;;;6.70;;
9986;SDS011;5033;46.310;11.214;2022-11-20T15:13:56;14.85;;;9.63;;
9986;SDS011;5033;46.310;11.214;2022-11-20T15:16:28;14.40;;;9.60;;
9986;SDS011;5033;46.310;11.214;2022-11-20T15:18:56;10.73;;;8.65;;
9986;SDS011;5033;46.310;11.214;2022-11-20T15:21:24;9.88;;;8.35;;
9986;SDS011;5033;46.310;11.214;2022-11-20T15:23:51;9.52;;;8.07;;
9986;SDS011;5033;46.310;11.214;2022-11-20T15:26:21;8.82;;;7.30;;
9986;SDS011;5033;46.310;11.214;2022-11-20T15:28:50;7.20;;;6.50;;
9986;SDS011;5033;46.310;11.214;2022-11-20T15:31:20;6.03;;;5.43;;
9986;SDS011;5033;46.310;11.214;2022-11-20T15:33:49;4.97;;;4.47;;
9986;SDS011;5033;46.310;11.214;2022-11-20T15:36:16;4.43;;;4.03;;
9986;SDS011;5033;46.310;11.214;2022-11-20T15:38:45;4.03;;;3.72;;